Time;durP1;ratioP1;P1;durP2;ratioP2;P2;SDS_P1;SDS_P2;PMS_P1;PMS_P2;Temp;Humidity;BMP_temperature;BMP_pressure;BME280_temperature;BME280_humidity;BME280_pressure;Samples;Min_cycle;Max_cycle;Signal;HPM_P1;HPM_P2
2020/12/06 00:02:52;;;;;;;2.63;2.35;;;;;;;-1.66;100.00;98419.50;5053574;28;20105;-81
2020/12/06 00:05:55;;;;;;;5.32;4.13;;;;;;;-1.63;100.00;98434.25;5040980;28;20048;-81
2020/12/06 00:08:58;;;;;;;11.98;5.25;;;;;;;-1.63;100.00;98437.75;5053703;28;20047;-81
2020/12/06 00:12:01;;;;;;;8.27;5.10;;;;;;;-1.61;100.00;98440.81;5052905;28;20075;-80
2020/12/06 00:15:09;;;;;;;21.45;5.18;;;;;;;-1.58;100.00;98445.41;5053154;28;20087;-81
2020/12/06 00:18:12;;;;;;;3.25;2.72;;;;;;;-1.54;100.00;98443.34;5053335;28;20063;-81
2020/12/06 00:21:18;;;;;;;4.85;3.60;;;;;;;-1.47;100.00;98445.13;5052834;28;20056;-81
2020/12/06 00:24:22;;;;;;;15.10;4.97;;;;;;;-1.41;100.00;98450.84;5040333;28;20472;-81
2020/12/06 00:27:24;;;;;;;4.40;3.83;;;;;;;-1.42;100.00;98452.81;5040091;28;20048;-80
2020/12/06 00:30:27;;;;;;;3.33;2.15;;;;;;;-1.44;100.00;98449.75;5040583;28;20075;-80
2020/12/06 00:33:30;;;;;;;5.63;3.38;;;;;;;-1.44;100.00;98454.44;5040397;28;20102;-81
2020/12/06 00:36:33;;;;;;;12.45;3.30;;;;;;;-1.44;100.00;98457.16;5040323;28;20055;-81
2020/12/06 00:39:38;;;;;;;14.18;3.60;;;;;;;-1.46;100.00;98445.91;5052702;28;20098;-81
2020/12/06 00:42:41;;;;;;;10.50;3.60;;;;;;;-1.46;100.00;98445.91;5040501;28;20111;-81
2020/12/06 00:45:44;;;;;;;6.97;2.85;;;;;;;-1.45;100.00;98442.00;5052540;28;20097;-81
2020/12/06 00:48:47;;;;;;;3.10;2.55;;;;;;;-1.43;100.00;98447.78;5039825;28;20071;-81
2020/12/06 00:51:50;;;;;;;2.88;2.63;;;;;;;-1.40;100.00;98441.44;5040166;28;20150;-81
2020/12/06 00:54:53;;;;;;;9.40;2.63;;;;;;;-1.41;100.00;98442.66;5052377;28;20765;-81
2020/12/06 00:57:56;;;;;;;5.75;4.38;;;;;;;-1.40;100.00;98449.66;5052346;28;20051;-81
2020/12/06 01:00:59;;;;;;;2.00;1.90;;;;;;;-1.37;100.00;98441.38;5052452;28;20110;-81
2020/12/06 01:04:02;;;;;;;6.28;3.05;;;;;;;-1.34;100.00;98442.50;5052672;28;20190;-81
2020/12/06 01:07:05;;;;;;;4.72;2.33;;;;;;;-1.30;100.00;98437.69;5038741;28;20052;-82
2020/12/06 01:10:10;;;;;;;13.55;4.80;;;;;;;-1.26;100.00;98438.38;5039645;28;20056;-82
2020/12/06 01:13:12;;;;;;;5.25;3.30;;;;;;;-1.21;100.00;98446.03;5051978;28;20102;-81
2020/12/06 01:16:15;;;;;;;2.38;2.13;;;;;;;-1.16;100.00;98448.22;5039864;28;20097;-82
2020/12/06 01:19:18;;;;;;;3.28;2.33;;;;;;;-1.13;100.00;98442.69;5052203;28;20048;-82
2020/12/06 01:22:22;;;;;;;3.55;2.85;;;;;;;-1.09;100.00;98448.03;5039690;28;20098;-83
2020/12/06 01:25:25;;;;;;;5.68;2.88;;;;;;;-1.10;100.00;98451.97;5052116;28;20051;-81
2020/12/06 01:28:28;;;;;;;5.28;1.80;;;;;;;-1.08;100.00;98455.03;5039967;28;20087;-81
2020/12/06 01:31:30;;;;;;;5.03;2.75;;;;;;;-1.10;100.00;98452.72;5052092;28;20056;-82
2020/12/06 01:34:33;;;;;;;9.60;3.88;;;;;;;-1.09;100.00;98454.28;5039968;28;20083;-80
2020/12/06 01:37:36;;;;;;;5.47;3.30;;;;;;;-1.08;100.00;98460.47;5053527;28;20109;-81
2020/12/06 01:40:42;;;;;;;12.38;3.45;;;;;;;-1.05;100.00;98459.63;5053573;28;20504;-81
2020/12/06 01:43:59;;;;;;;2.45;2.35;;;;;;;-1.05;100.00;98465.88;5052327;28;20117;-81
2020/12/06 01:47:02;;;;;;;2.00;1.77;;;;;;;-1.03;100.00;98466.22;5039249;28;20444;-83
2020/12/06 01:50:06;;;;;;;11.15;3.20;;;;;;;-1.02;100.00;98458.78;5039314;28;20466;-82
2020/12/06 01:53:09;;;;;;;5.53;2.38;;;;;;;-0.99;100.00;98460.63;5052526;28;20124;-83
2020/12/06 01:56:12;;;;;;;6.68;2.90;;;;;;;-0.95;100.00;98458.56;5053319;28;20167;-84
2020/12/06 01:59:18;;;;;;;6.45;3.25;;;;;;;-0.95;100.00;98469.50;5058471;28;20075;-82
2020/12/06 02:02:21;;;;;;;5.70;2.65;;;;;;;-0.95;100.00;98469.50;5043216;28;20095;-81
2020/12/06 02:05:24;;;;;;;2.42;2.22;;;;;;;-0.95;100.00;98475.72;5039175;28;20079;-81
2020/12/06 02:08:27;;;;;;;3.40;2.25;;;;;;;-0.95;100.00;98472.22;5051338;28;20052;-81
2020/12/06 02:11:31;;;;;;;2.63;1.90;;;;;;;-0.95;100.00;98466.75;5050776;28;20079;-82
2020/12/06 02:14:35;;;;;;;3.35;2.35;;;;;;;-0.94;100.00;98471.03;5050847;28;20051;-81
2020/12/06 02:17:38;;;;;;;5.00;2.63;;;;;;;-0.94;100.00;98466.34;5039341;28;20048;-82
2020/12/06 02:20:41;;;;;;;11.98;3.38;;;;;;;-0.93;100.00;98467.88;5055148;28;20515;-81
2020/12/06 02:23:44;;;;;;;14.55;2.83;;;;;;;-0.93;100.00;98470.59;5055248;28;20064;-81
2020/12/06 02:26:50;;;;;;;5.20;1.92;;;;;;;-0.92;100.00;98474.09;5043551;28;20044;-81
2020/12/06 02:29:53;;;;;;;4.30;2.58;;;;;;;-0.91;100.00;98470.94;5055369;28;20047;-79
2020/12/06 02:32:55;;;;;;;8.25;2.42;;;;;;;-0.92;100.00;98476.84;5055167;28;20067;-77
2020/12/06 02:35:58;;;;;;;6.63;2.13;;;;;;;-0.92;100.00;98468.63;5055154;28;20500;-77
2020/12/06 02:39:03;;;;;;;7.85;3.45;;;;;;;-0.91;100.00;98465.47;5054558;28;20052;-77
2020/12/06 02:42:06;;;;;;;9.20;4.60;;;;;;;-0.89;100.00;98476.00;5054497;28;20676;-76
2020/12/06 02:45:09;;;;;;;4.20;1.98;;;;;;;-0.89;100.00;98476.00;5052865;28;20094;-77
2020/12/06 02:48:12;;;;;;;6.45;2.30;;;;;;;-0.87;100.00;98473.59;5055462;28;20504;-77
2020/12/06 02:51:15;;;;;;;3.72;2.30;;;;;;;-0.86;100.00;98486.03;5054861;28;20076;-77
2020/12/06 02:54:18;;;;;;;8.95;2.72;;;;;;;-0.85;100.00;98479.38;5054673;28;20554;-78
2020/12/06 02:57:22;;;;;;;5.45;2.20;;;;;;;-0.81;100.00;98486.28;5054643;28;20098;-78
2020/12/06 03:00:25;;;;;;;8.45;2.97;;;;;;;-0.78;100.00;98484.66;5054692;28;20055;-77
2020/12/06 03:03:28;;;;;;;3.67;2.33;;;;;;;-0.78;100.00;98479.94;5055598;28;20079;-77
2020/12/06 03:06:31;;;;;;;21.48;3.13;;;;;;;-0.76;100.00;98479.53;5054533;28;20094;-77
2020/12/06 03:09:34;;;;;;;2.47;1.70;;;;;;;-0.73;100.00;98475.13;5054546;28;20052;-77
2020/12/06 03:12:37;;;;;;;2.33;1.98;;;;;;;-0.70;100.00;98468.81;5054339;28;20417;-77
2020/12/06 03:15:40;;;;;;;8.13;3.05;;;;;;;-0.70;100.00;98475.06;5054328;28;20043;-77
2020/12/06 03:18:43;;;;;;;9.05;2.38;;;;;;;-0.67;100.00;98479.63;5054748;28;20175;-76
2020/12/06 03:21:46;;;;;;;6.80;3.40;;;;;;;-0.68;100.00;98472.66;5054211;28;20048;-77
2020/12/06 03:24:48;;;;;;;3.15;2.70;;;;;;;-0.65;100.00;98466.31;5054571;28;20059;-78
2020/12/06 03:27:51;;;;;;;22.27;2.70;;;;;;;-0.63;100.00;98463.16;5054378;28;20048;-77
2020/12/06 03:30:54;;;;;;;11.50;2.47;;;;;;;-0.63;100.00;98469.41;5053103;28;20044;-79
2020/12/06 03:33:57;;;;;;;4.00;1.73;;;;;;;-0.61;100.00;98477.94;5054366;28;20043;-77
2020/12/06 03:36:59;;;;;;;3.95;2.35;;;;;;;-0.60;100.00;98471.25;5054039;28;20055;-77
2020/12/06 03:40:04;;;;;;;7.25;3.45;;;;;;;-0.58;100.00;98476.25;5054351;28;20052;-78
2020/12/06 03:43:06;;;;;;;6.97;2.65;;;;;;;-0.56;100.00;98469.16;5054256;28;20458;-77
2020/12/06 03:46:09;;;;;;;7.55;4.40;;;;;;;-0.56;100.00;98474.63;5053960;28;20131;-77
2020/12/06 03:49:12;;;;;;;6.65;3.28;;;;;;;-0.56;100.00;98469.16;5054227;28;20148;-78
2020/12/06 03:52:15;;;;;;;3.30;2.30;;;;;;;-0.56;100.00;98469.16;5053787;28;20115;-78
2020/12/06 03:55:17;;;;;;;2.78;2.47;;;;;;;-0.53;100.00;98473.00;5053591;28;20134;-77
2020/12/06 03:58:20;;;;;;;6.40;3.30;;;;;;;-0.53;100.00;98473.78;5053662;28;20056;-77
2020/12/06 04:01:23;;;;;;;4.28;3.17;;;;;;;-0.50;100.00;98472.16;5053376;28;20634;-77
2020/12/06 04:04:26;;;;;;;8.85;3.15;;;;;;;-0.52;100.00;98472.56;5053308;28;20132;-77
2020/12/06 04:07:29;;;;;;;4.38;3.85;;;;;;;-0.52;100.00;98475.28;5053427;28;20052;-78
2020/12/06 04:10:32;;;;;;;4.63;2.50;;;;;;;-0.53;100.00;98471.03;5053237;28;20466;-78
2020/12/06 04:13:35;;;;;;;14.40;1.95;;;;;;;-0.52;100.00;98480.75;5053100;28;20100;-77
2020/12/06 04:16:38;;;;;;;8.68;2.58;;;;;;;-0.53;100.00;98481.97;5053122;28;20123;-77
2020/12/06 04:19:40;;;;;;;7.20;3.05;;;;;;;-0.53;100.00;98490.19;5052956;28;20106;-78
2020/12/06 04:22:43;;;;;;;3.13;2.38;;;;;;;-0.54;100.00;98499.56;5052870;28;20132;-77
2020/12/06 04:25:46;;;;;;;4.68;2.10;;;;;;;-0.56;100.00;98493.78;5053264;28;20191;-77
2020/12/06 04:28:49;;;;;;;5.20;2.72;;;;;;;-0.57;100.00;98495.00;5052822;28;20120;-78
2020/12/06 04:31:51;;;;;;;6.65;2.85;;;;;;;-0.57;100.00;98489.53;5052914;28;20115;-77
2020/12/06 04:34:54;;;;;;;14.20;2.75;;;;;;;-0.58;100.00;98489.94;5052689;28;20079;-78
2020/12/06 04:37:57;;;;;;;5.18;3.42;;;;;;;-0.61;100.00;98483.41;5052467;28;20452;-77
2020/12/06 04:41:00;;;;;;;6.40;1.67;;;;;;;-0.62;100.00;98487.31;5052137;28;20048;-77
2020/12/06 04:44:03;;;;;;;14.35;4.22;;;;;;;-0.62;100.00;98487.31;5052430;28;20055;-78
2020/12/06 04:47:12;;;;;;;8.38;2.13;;;;;;;-0.59;100.00;98491.16;5052749;28;20110;-77
2020/12/06 04:50:34;;;;;;;3.00;2.53;;;;;;;-0.56;100.00;98501.97;5052432;28;20512;-77
2020/12/06 04:53:46;;;;;;;3.22;1.58;;;;;;;-0.51;100.00;98497.94;5052308;28;20087;-78
2020/12/06 04:56:55;;;;;;;9.00;3.08;;;;;;;-0.47;100.00;98493.91;5051971;28;20110;-78
2020/12/06 05:00:10;;;;;;;6.57;3.08;;;;;;;-0.46;100.00;98500.91;5052440;28;20174;-78
2020/12/06 05:03:12;;;;;;;4.10;2.67;;;;;;;-0.44;100.00;98506.72;5052458;28;20047;-77
2020/12/06 05:06:18;;;;;;;9.02;2.10;;;;;;;-0.42;100.00;98496.13;5052256;28;20529;-78
2020/12/06 05:09:23;;;;;;;36.95;2.97;;;;;;;-0.41;100.00;98497.63;5051899;28;20536;-78
2020/12/06 05:12:26;;;;;;;8.80;2.35;;;;;;;-0.39;100.00;98500.69;5052101;28;20114;-78
2020/12/06 05:15:29;;;;;;;4.05;2.13;;;;;;;-0.35;100.00;98500.59;5052402;28;20048;-78
2020/12/06 05:18:32;;;;;;;6.43;2.30;;;;;;;-0.34;100.00;98488.44;5052157;28;20052;-77
2020/12/06 05:21:40;;;;;;;2.60;1.70;;;;;;;-0.33;100.00;98498.97;5052129;28;20136;-78
2020/12/06 05:24:43;;;;;;;4.55;2.63;;;;;;;-0.32;100.00;98492.28;5052286;28;20231;-77
2020/12/06 05:27:46;;;;;;;7.00;3.13;;;;;;;-0.31;100.00;98496.56;5052161;28;20040;-77
2020/12/06 05:30:49;;;;;;;8.32;3.20;;;;;;;-0.29;100.00;98498.88;5052050;28;20048;-77
2020/12/06 05:33:54;;;;;;;8.10;2.30;;;;;;;-0.29;100.00;98499.63;5051917;28;20091;-77
2020/12/06 05:37:04;;;;;;;2.25;1.83;;;;;;;-0.29;100.00;98494.16;5051893;28;20575;-78
2020/12/06 05:40:12;;;;;;;7.35;2.63;;;;;;;-0.27;100.00;98491.75;5051996;28;20099;-78
2020/12/06 05:43:17;;;;;;;6.20;2.35;;;;;;;-0.28;100.00;98490.22;5051990;28;20148;-79
2020/12/06 05:46:19;;;;;;;5.13;2.10;;;;;;;-0.28;100.00;98484.75;5051889;28;20719;-78
2020/12/06 05:49:23;;;;;;;5.75;2.60;;;;;;;-0.25;100.00;98492.09;5051625;28;20044;-78
2020/12/06 05:52:30;;;;;;;15.20;3.92;;;;;;;-0.23;100.00;98486.94;5051738;28;20048;-78
2020/12/06 05:55:34;;;;;;;7.05;1.70;;;;;;;-0.24;100.00;98490.88;5056119;28;20048;-77
2020/12/06 05:58:42;;;;;;;3.75;1.77;;;;;;;-0.25;100.00;98494.81;5055920;28;20055;-77
2020/12/06 06:01:46;;;;;;;1.98;1.48;;;;;;;-0.23;100.00;98486.94;5055703;28;20464;-78
2020/12/06 06:04:50;;;;;;;5.97;2.95;;;;;;;-0.22;100.00;98488.47;5055931;28;20558;-78
2020/12/06 06:07:59;;;;;;;4.38;1.70;;;;;;;-0.22;100.00;98488.47;5055738;28;20071;-78
2020/12/06 06:11:21;;;;;;;10.07;3.00;;;;;;;-0.22;100.00;98493.94;5055290;28;20214;-78
2020/12/06 06:14:25;;;;;;;13.98;4.00;;;;;;;-0.21;100.00;98492.75;5055685;28;20075;-78
2020/12/06 06:17:30;;;;;;;8.35;2.03;;;;;;;-0.21;100.00;98490.00;5043232;28;20052;-79
2020/12/06 06:20:33;;;;;;;6.10;2.88;;;;;;;-0.19;100.00;98493.06;5055568;28;20618;-78
2020/12/06 06:23:37;;;;;;;4.15;2.22;;;;;;;-0.15;100.00;98503.91;5056351;28;20075;-78
2020/12/06 06:26:43;;;;;;;7.47;2.22;;;;;;;-0.17;100.00;98496.13;5055343;28;20122;-77
2020/12/06 06:29:49;;;;;;;4.13;2.83;;;;;;;-0.17;100.00;98501.59;5055342;28;20075;-80
2020/12/06 06:32:51;;;;;;;14.18;3.58;;;;;;;-0.14;100.00;98500.75;5040806;28;20072;-80
2020/12/06 06:35:56;;;;;;;8.35;3.53;;;;;;;-0.16;100.00;98492.22;5044135;28;20048;-80
2020/12/06 06:38:59;;;;;;;3.30;2.10;;;;;;;-0.14;100.00;98495.28;5051578;28;20052;-78
2020/12/06 06:42:10;;;;;;;9.10;3.58;;;;;;;-0.13;100.00;98494.06;5055143;28;20102;-80
2020/12/06 06:45:12;;;;;;;4.28;2.80;;;;;;;-0.12;100.00;98498.34;5054742;28;20052;-79
2020/12/06 06:48:16;;;;;;;4.15;2.22;;;;;;;-0.11;100.00;98502.59;5054578;28;20101;-78
2020/12/06 06:51:21;;;;;;;4.75;2.78;;;;;;;-0.08;100.00;98507.19;5054813;28;20103;-78
2020/12/06 06:54:27;;;;;;;2.25;1.92;;;;;;;-0.07;100.00;98514.22;5054829;28;20052;-78
2020/12/06 06:57:31;;;;;;;7.72;3.30;;;;;;;-0.05;100.00;98514.53;5054713;28;20088;-78
2020/12/06 07:00:34;;;;;;;5.03;2.00;;;;;;;-0.07;100.00;98514.22;5054425;28;20533;-78
2020/12/06 07:03:47;;;;;;;3.50;2.17;;;;;;;-0.05;100.00;98513.78;5054907;28;20074;-78
2020/12/06 07:06:51;;;;;;;7.72;3.30;;;;;;;-0.04;100.00;98515.28;5054833;28;20063;-78
2020/12/06 07:09:56;;;;;;;12.13;3.13;;;;;;;-0.03;100.00;98520.34;5054922;28;20044;-79
2020/12/06 07:12:59;;;;;;;3.83;2.17;;;;;;;-0.01;100.00;98508.97;5054341;28;20098;-78
2020/12/06 07:16:09;;;;;;;5.32;2.80;;;;;;;0.02;100.00;98518.25;5054507;28;20044;-78
2020/12/06 07:19:12;;;;;;;11.48;2.85;;;;;;;0.04;100.00;98524.06;5053380;28;20542;-79
2020/12/06 07:22:15;;;;;;;3.85;2.38;;;;;;;0.06;100.00;98518.91;5043992;28;20055;-78
2020/12/06 07:25:19;;;;;;;10.85;2.75;;;;;;;0.09;100.00;98523.53;5054234;28;20055;-78
2020/12/06 07:28:22;;;;;;;3.13;2.38;;;;;;;0.09;100.00;98524.28;5056030;28;20048;-78
2020/12/06 07:31:26;;;;;;;9.20;2.35;;;;;;;0.12;100.00;98522.63;5054316;28;20519;-78
2020/12/06 07:34:28;;;;;;;6.82;3.60;;;;;;;0.12;100.00;98523.41;5054318;28;20056;-77
2020/12/06 07:37:31;;;;;;;4.95;3.03;;;;;;;0.12;100.00;98525.38;5050509;28;20066;-79
2020/12/06 07:40:34;;;;;;;5.90;2.70;;;;;;;0.09;100.00;98524.28;5047952;28;20144;-78
2020/12/06 07:43:38;;;;;;;5.95;2.88;;;;;;;0.11;100.00;98526.59;5049495;28;20044;-78
2020/12/06 07:46:42;;;;;;;12.30;3.13;;;;;;;0.11;100.00;98527.34;5037399;28;20102;-80
2020/12/06 07:49:48;;;;;;;10.27;2.65;;;;;;;0.12;100.00;98523.41;5050186;28;20095;-80
2020/12/06 07:52:51;;;;;;;13.73;3.45;;;;;;;0.14;100.00;98525.69;5053169;28;20051;-79
2020/12/06 07:56:05;;;;;;;5.93;2.90;;;;;;;0.17;100.00;98530.31;5052621;28;20618;-80
2020/12/06 07:59:21;;;;;;;3.35;2.30;;;;;;;0.18;100.00;98532.59;5051301;28;20116;-80
2020/12/06 08:02:26;;;;;;;5.65;1.85;;;;;;;0.19;100.00;98530.63;5038149;28;20527;-79
2020/12/06 08:05:34;;;;;;;8.88;2.90;;;;;;;0.22;100.00;98541.47;5051427;28;20071;-80
2020/12/06 08:08:39;;;;;;;4.15;1.98;;;;;;;0.26;100.00;98538.63;5039443;28;20405;-79
2020/12/06 08:11:49;;;;;;;6.88;4.47;;;;;;;0.29;100.00;98533.03;5037147;28;20044;-80
2020/12/06 08:15:22;;;;;;;7.50;3.50;;;;;;;0.29;100.00;98537.75;5051973;28;20627;-80
2020/12/06 08:18:25;;;;;;;7.93;2.70;;;;;;;0.34;100.00;98548.16;5052362;28;20052;-78
2020/12/06 08:21:42;;;;;;;8.20;3.20;;;;;;;0.36;100.00;98546.50;5052976;28;20174;-79
2020/12/06 08:24:45;;;;;;;4.40;2.15;;;;;;;0.36;100.00;98545.75;5053713;28;20087;-79
2020/12/06 08:27:49;;;;;;;9.13;3.08;;;;;;;0.41;100.00;98553.41;5053263;28;20473;-79
2020/12/06 08:30:52;;;;;;;7.63;2.55;;;;;;;0.46;100.00;98558.31;5052990;28;20134;-79
2020/12/06 08:34:10;;;;;;;3.42;2.67;;;;;;;0.43;100.00;98551.78;5052858;28;20504;-79
2020/12/06 08:37:20;;;;;;;7.55;3.10;;;;;;;0.53;100.00;98555.38;5052825;28;20083;-79
2020/12/06 08:40:22;;;;;;;4.88;3.35;;;;;;;0.57;100.00;98553.28;5052773;28;20051;-79
2020/12/06 08:43:49;;;;;;;4.22;3.00;;;;;;;0.66;100.00;98550.66;5052903;28;20090;-80
2020/12/06 08:46:53;;;;;;;10.30;3.00;;;;;;;0.75;100.00;98548.78;5053367;28;20110;-80
2020/12/06 08:50:04;;;;;;;5.55;3.20;;;;;;;0.72;100.00;98551.63;5052741;28;20105;-79
2020/12/06 08:53:07;;;;;;;7.25;2.65;;;;;;;0.74;100.00;98552.72;5052720;28;20047;-79
2020/12/06 08:56:33;;;;;;;6.60;2.10;;;;;;;0.75;100.00;98548.78;5040485;28;20047;-79
2020/12/06 08:59:37;;;;;;;10.10;2.38;;;;;;;0.82;100.00;98556.00;5052479;28;20495;-79
2020/12/06 09:02:40;;;;;;;3.00;2.08;;;;;;;0.86;100.00;98559.38;5052163;28;20467;-79
2020/12/06 09:05:45;;;;;;;9.13;4.15;;;;;;;0.92;100.00;98557.59;5052270;28;20130;-79
2020/12/06 09:08:48;;;;;;;2.92;2.22;;;;;;;0.95;100.00;98545.78;5052636;28;20048;-80
2020/12/06 09:11:53;;;;;;;2.92;2.20;;;;;;;0.97;100.00;98554.31;5052226;28;20048;-80
2020/12/06 09:14:55;;;;;;;3.72;3.10;;;;;;;1.01;100.00;98554.97;5040604;28;20417;-80
2020/12/06 09:17:58;;;;;;;3.00;2.63;;;;;;;1.06;100.00;98551.63;5053534;28;20464;-78
2020/12/06 09:21:01;;;;;;;4.45;2.10;;;;;;;1.12;100.00;98563.59;5052857;28;20110;-78
2020/12/06 09:24:05;;;;;;;8.98;3.20;;;;;;;1.14;100.00;98555.69;5052490;28;20056;-79
2020/12/06 09:27:07;;;;;;;10.10;3.45;;;;;;;1.16;100.00;98556.00;5051823;28;20048;-78
2020/12/06 09:30:10;;;;;;;11.05;3.50;;;;;;;1.23;100.00;98555.78;5051737;28;20102;-78
2020/12/06 09:33:13;;;;;;;5.00;2.55;;;;;;;1.32;100.00;98558.56;5051642;28;20052;-78
2020/12/06 09:36:17;;;;;;;5.53;2.30;;;;;;;1.40;100.00;98559.88;5038680;28;20512;-80
2020/12/06 09:39:20;;;;;;;4.88;1.83;;;;;;;1.49;100.00;98559.91;5046279;28;20512;-79
2020/12/06 09:42:22;;;;;;;3.53;2.30;;;;;;;1.53;100.00;98562.56;5042691;28;20048;-79
2020/12/06 09:45:25;;;;;;;6.63;2.30;;;;;;;1.59;100.00;98562.72;5031738;28;20043;-79
2020/12/06 09:48:28;;;;;;;6.53;2.90;;;;;;;1.63;100.00;98566.09;5031692;28;20096;-79
2020/12/06 09:51:31;;;;;;;7.28;2.75;;;;;;;1.64;100.00;98551.97;5031874;28;20072;-79
2020/12/06 09:54:34;;;;;;;14.82;3.65;;;;;;;1.67;100.00;98558.53;5049454;28;20060;-79
2020/12/06 09:57:37;;;;;;;4.45;3.35;;;;;;;1.72;100.00;98560.69;5051383;28;20102;-79
2020/12/06 10:00:42;;;;;;;9.38;2.85;;;;;;;1.77;100.00;98560.13;5051638;28;20068;-80
2020/12/06 10:03:45;;;;;;;6.53;3.10;;;;;;;1.81;100.00;98567.00;5051703;28;20504;-78
2020/12/06 10:06:47;;;;;;;3.63;2.80;;;;;;;1.85;100.00;98569.63;5039591;28;20072;-79
2020/12/06 10:09:51;;;;;;;11.07;2.60;;;;;;;1.93;100.00;98562.66;5050937;28;20052;-78
2020/12/06 10:12:54;;;;;;;9.05;2.25;;;;;;;1.99;100.00;98566.38;5051830;28;20051;-79
2020/12/06 10:15:57;;;;;;;7.13;2.20;;;;;;;2.05;100.00;98565.34;5051445;28;20051;-80
2020/12/06 10:19:00;;;;;;;4.28;1.63;;;;;;;2.09;100.00;98568.72;5051602;28;20052;-79
2020/12/06 10:22:02;;;;;;;8.38;2.65;;;;;;;2.14;100.00;98570.09;5045970;28;20060;-80
2020/12/06 10:25:06;;;;;;;6.95;2.47;;;;;;;2.18;100.00;98570.72;5048417;28;20044;-80
2020/12/06 10:28:09;;;;;;;4.38;0.93;;;;;;;2.24;100.00;98575.19;5050013;28;20056;-81
2020/12/06 10:31:12;;;;;;;5.35;1.98;;;;;;;2.32;100.00;98570.16;5050242;28;20080;-81
2020/12/06 10:34:15;;;;;;;6.18;1.90;;;;;;;2.42;100.00;98571.00;5046997;28;20408;-81
2020/12/06 10:37:19;;;;;;;7.32;2.40;;;;;;;2.47;100.00;98573.91;5047155;28;20394;-81
2020/12/06 10:40:23;;;;;;;10.23;2.05;;;;;;;2.55;100.00;98569.69;5053698;28;20048;-80
2020/12/06 10:43:25;;;;;;;2.60;0.85;;;;;;;2.60;100.00;98571.81;5052099;28;20136;-80
2020/12/06 10:46:28;;;;;;;2.38;1.90;;;;;;;2.67;100.00;98576.25;5052325;28;20086;-80
2020/12/06 10:49:31;;;;;;;1.25;1.15;;;;;;;2.73;100.00;98575.22;5052549;28;20080;-81
2020/12/06 10:52:34;;;;;;;2.80;2.05;;;;;;;2.79;100.00;98572.66;5052968;28;20047;-78
2020/12/06 10:55:36;;;;;;;1.73;1.05;;;;;;;2.83;100.00;98571.28;5053053;28;20052;-80
2020/12/06 10:58:39;;;;;;;0.93;0.65;;;;;;;2.88;100.00;98564.44;5053879;28;20047;-79
2020/12/06 11:01:42;;;;;;;2.90;1.65;;;;;;;2.93;100.00;98564.59;5054498;28;20043;-80
2020/12/06 11:04:45;;;;;;;3.90;1.58;;;;;;;3.03;100.00;98566.13;5054700;28;20194;-80
2020/12/06 11:07:48;;;;;;;1.33;1.23;;;;;;;3.19;100.00;98564.31;5042357;28;20465;-80
2020/12/06 11:10:51;;;;;;;7.72;1.77;;;;;;;3.32;100.00;98553.91;5054167;28;20098;-80
2020/12/06 11:13:53;;;;;;;2.53;1.73;;;;;;;3.44;100.00;98564.78;5053947;28;20074;-80
2020/12/06 11:16:56;;;;;;;6.97;1.70;;;;;;;3.55;100.00;98558.81;5054155;28;20453;-79
2020/12/06 11:19:59;;;;;;;2.08;0.93;;;;;;;3.67;100.00;98557.88;5054085;28;20763;-79
2020/12/06 11:23:02;;;;;;;7.85;3.03;;;;;;;3.69;100.00;98558.19;5054303;28;20090;-79
2020/12/06 11:26:04;;;;;;;3.78;1.52;;;;;;;3.72;100.00;98560.03;5047772;28;20462;-80
2020/12/06 11:29:07;;;;;;;3.60;1.67;;;;;;;3.75;100.00;98550.84;5037359;28;20060;-79
2020/12/06 11:32:11;;;;;;;5.10;1.45;;;;;;;3.78;100.00;98555.44;5041108;28;20090;-77
2020/12/06 11:35:14;;;;;;;8.60;1.60;;;;;;;3.78;100.00;98558.19;5042306;28;20060;-79
2020/12/06 11:38:17;;;;;;;3.95;1.73;;;;;;;3.74;100.00;98561.09;5037272;28;20617;-79
2020/12/06 11:41:20;;;;;;;3.40;1.55;;;;;;;3.67;100.00;98569.66;5033815;28;20529;-79
2020/12/06 11:44:23;;;;;;;5.15;1.80;;;;;;;3.61;100.00;98568.00;5033968;28;20044;-80
2020/12/06 11:47:26;;;;;;;4.80;1.42;;;;;;;3.65;100.00;98566.63;5034096;28;20509;-80
2020/12/06 11:50:32;;;;;;;9.50;2.85;;;;;;;3.69;100.00;98563.69;5033184;28;20055;-82
2020/12/06 11:53:36;;;;;;;4.63;1.38;;;;;;;3.76;100.00;98560.63;5033734;28;20052;-80
2020/12/06 11:56:39;;;;;;;11.13;2.17;;;;;;;3.84;100.00;98556.34;5033770;28;20472;-79
2020/12/06 11:59:41;;;;;;;3.05;2.33;;;;;;;3.89;100.00;98563.97;5033690;28;20055;-79
2020/12/06 12:02:44;;;;;;;4.10;1.10;;;;;;;3.96;100.00;98558.16;5033405;28;20119;-81
2020/12/06 12:05:47;;;;;;;3.00;1.25;;;;;;;4.07;100.00;98552.16;5033997;28;20053;-78
2020/12/06 12:08:51;;;;;;;4.85;1.45;;;;;;;4.12;100.00;98555.03;5033906;28;20530;-78
2020/12/06 12:11:55;;;;;;;4.57;0.93;;;;;;;4.15;100.00;98561.63;5033129;28;20143;-79
2020/12/06 12:14:57;;;;;;;16.08;1.88;;;;;;;4.15;100.00;98562.41;5049055;28;20072;-79
2020/12/06 12:18:00;;;;;;;7.38;2.95;;;;;;;4.13;100.00;98556.59;5040476;28;20052;-80
2020/12/06 12:21:03;;;;;;;1.35;1.20;;;;;;;4.07;100.00;98563.94;5053231;28;20052;-80
2020/12/06 12:24:06;;;;;;;6.32;3.80;;;;;;;4.05;100.00;98555.38;5053310;28;20098;-78
2020/12/06 12:27:09;;;;;;;8.13;1.85;;;;;;;4.09;100.00;98560.72;5053182;28;20552;-80
2020/12/06 12:30:12;;;;;;;7.32;2.10;;;;;;;4.10;100.00;98562.25;5053249;28;20068;-79
2020/12/06 12:33:15;;;;;;;3.38;1.20;;;;;;;4.13;100.00;98553.84;5052856;28;20056;-79
2020/12/06 12:36:17;;;;;;;5.13;1.10;;;;;;;4.15;100.00;98548.63;5052951;28;20083;-79
2020/12/06 12:39:20;;;;;;;3.13;1.50;;;;;;;4.16;100.00;98561.16;5052799;28;20044;-80
2020/12/06 12:42:23;;;;;;;6.13;1.85;;;;;;;4.17;100.00;98550.91;5040577;28;20154;-80
2020/12/06 12:45:26;;;;;;;7.65;1.50;;;;;;;4.13;100.00;98562.09;5040126;28;20127;-79
2020/12/06 12:48:29;;;;;;;0.52;0.52;;;;;;;4.15;100.00;98565.16;5052529;28;20056;-80
2020/12/06 12:51:32;;;;;;;16.33;2.22;;;;;;;4.18;100.00;98557.94;5052584;28;20055;-80
2020/12/06 12:54:34;;;;;;;6.40;1.65;;;;;;;4.15;100.00;98565.16;5052523;28;20059;-80
2020/12/06 12:57:38;;;;;;;2.20;1.13;;;;;;;4.10;100.00;98557.50;5053260;28;20126;-80
2020/12/06 13:00:41;;;;;;;2.42;1.27;;;;;;;4.07;100.00;98558.41;5053751;28;20071;-81
2020/12/06 13:03:44;;;;;;;8.73;1.80;;;;;;;4.05;100.00;98555.38;5038204;28;20075;-81
2020/12/06 13:06:50;;;;;;;8.32;2.03;;;;;;;4.02;100.00;98550.78;5036412;28;20071;-81
2020/12/06 13:09:53;;;;;;;7.07;2.25;;;;;;;4.01;100.00;98554.75;5056024;28;20147;-80
2020/12/06 13:12:56;;;;;;;5.85;1.25;;;;;;;4.00;100.00;98558.75;5052058;28;20048;-80
2020/12/06 13:15:59;;;;;;;6.05;2.33;;;;;;;3.98;100.00;98554.94;5037659;28;20508;-81
2020/12/06 13:19:02;;;;;;;2.72;0.90;;;;;;;3.97;100.00;98559.69;5041686;28;20094;-83
2020/12/06 13:22:06;;;;;;;5.03;1.10;;;;;;;3.94;100.00;98554.34;5028510;28;20104;-86
2020/12/06 13:25:09;;;;;;;5.30;1.63;;;;;;;3.91;100.00;98561.53;5035839;28;20050;-80
2020/12/06 13:28:13;;;;;;;6.20;1.83;;;;;;;3.89;100.00;98557.72;5051754;28;20504;-80
2020/12/06 13:31:22;;;;;;;13.75;2.95;;;;;;;3.85;100.00;98564.13;5044498;28;20048;-82
2020/12/06 13:34:25;;;;;;;4.15;2.53;;;;;;;3.81;100.00;98563.53;5042642;28;20048;-84
2020/12/06 13:37:28;;;;;;;4.97;1.55;;;;;;;3.80;100.00;98566.75;5040414;28;20136;-81
2020/12/06 13:40:31;;;;;;;3.00;0.93;;;;;;;3.77;100.00;98562.16;5052287;28;20404;-81
2020/12/06 13:43:34;;;;;;;4.35;2.17;;;;;;;3.78;100.00;98563.69;5052594;28;20087;-81
2020/12/06 13:46:38;;;;;;;7.50;1.35;;;;;;;3.79;100.00;98560.47;5051666;28;20407;-83
2020/12/06 13:49:41;;;;;;;9.30;2.63;;;;;;;3.78;100.00;98555.44;5040353;28;20098;-79
2020/12/06 13:52:44;;;;;;;7.10;2.40;;;;;;;3.76;100.00;98566.91;5040301;28;20044;-84
2020/12/06 13:55:47;;;;;;;7.00;3.13;;;;;;;3.74;100.00;98563.09;5040069;28;20098;-87
2020/12/06 13:58:50;;;;;;;2.95;1.80;;;;;;;3.74;100.00;98555.59;5040815;28;20047;-82
2020/12/06 14:01:53;;;;;;;5.30;2.25;;;;;;;3.75;100.00;98559.09;5042658;28;20053;-81
2020/12/06 14:04:56;;;;;;;5.60;2.90;;;;;;;3.77;100.00;98564.91;5032270;28;20456;-80
2020/12/06 14:07:59;;;;;;;21.33;3.75;;;;;;;3.73;100.00;98564.31;5031950;28;20748;-79
2020/12/06 14:11:02;;;;;;;9.32;3.28;;;;;;;3.70;100.00;98562.47;5031645;28;20115;-81
2020/12/06 14:14:05;;;;;;;6.57;2.65;;;;;;;3.68;100.00;98568.44;5041338;28;20044;-79
2020/12/06 14:17:08;;;;;;;15.73;2.63;;;;;;;3.64;100.00;98565.06;5055706;28;20465;-80
2020/12/06 14:20:11;;;;;;;2.30;0.75;;;;;;;3.62;100.00;98567.53;5055748;28;20052;-79
2020/12/06 14:23:14;;;;;;;7.50;2.88;;;;;;;3.60;100.00;98569.22;5056029;28;20055;-79